sensor_id;sensor_type;location;lat;lon;timestamp;P1;durP1;ratioP1;P2;durP2;ratioP2
69989;SDS011;57331;52.054;5.294;2023-08-30T00:01:13;14.85;;;7.00;;
69989;SDS011;57331;52.054;5.294;2023-08-30T00:03:40;12.52;;;7.05;;
69989;SDS011;57331;52.054;5.294;2023-08-30T00:06:07;12.65;;;7.40;;
69989;SDS011;57331;52.054;5.294;2023-08-30T00:08:35;18.30;;;7.47;;
69989;SDS011;57331;52.054;5.294;2023-08-30T00:11:02;11.13;;;6.60;;
69989;SDS011;57331;52.054;5.294;2023-08-30T00:13:30;13.93;;;6.72;;
69989;SDS011;57331;52.054;5.294;2023-08-30T00:15:59;12.55;;;6.95;;
69989;SDS011;57331;52.054;5.294;2023-08-30T00:18:26;12.30;;;7.22;;
69989;SDS011;57331;52.054;5.294;2023-08-30T00:20:53;17.92;;;6.95;;
69989;SDS011;57331;52.054;5.294;2023-08-30T00:23:20;17.67;;;6.83;;
69989;SDS011;57331;52.054;5.294;2023-08-30T00:25:47;12.18;;;6.80;;
69989;SDS011;57331;52.054;5.294;2023-08-30T00:28:15;12.98;;;7.47;;
69989;SDS011;57331;52.054;5.294;2023-08-30T00:30:42;12.43;;;7.05;;
69989;SDS011;57331;52.054;5.294;2023-08-30T00:33:09;13.43;;;7.20;;
69989;SDS011;57331;52.054;5.294;2023-08-30T00:35:35;14.07;;;6.80;;
69989;SDS011;57331;52.054;5.294;2023-08-30T00:38:02;14.57;;;7.25;;
69989;SDS011;57331;52.054;5.294;2023-08-30T00:40:37;15.05;;;7.00;;
69989;SDS011;57331;52.054;5.294;2023-08-30T00:43:05;14.07;;;7.00;;
69989;SDS011;57331;52.054;5.294;2023-08-30T00:45:34;13.05;;;7.28;;
69989;SDS011;57331;52.054;5.294;2023-08-30T00:48:03;13.43;;;7.70;;
69989;SDS011;57331;52.054;5.294;2023-08-30T00:50:31;12.55;;;6.60;;
69989;SDS011;57331;52.054;5.294;2023-08-30T00:52:58;13.40;;;7.45;;
69989;SDS011;57331;52.054;5.294;2023-08-30T00:55:25;13.52;;;6.95;;
69989;SDS011;57331;52.054;5.294;2023-08-30T00:57:51;12.90;;;7.55;;
69989;SDS011;57331;52.054;5.294;2023-08-30T01:00:19;16.87;;;8.00;;
69989;SDS011;57331;52.054;5.294;2023-08-30T01:02:46;12.07;;;7.40;;
69989;SDS011;57331;52.054;5.294;2023-08-30T01:05:13;16.70;;;8.30;;
69989;SDS011;57331;52.054;5.294;2023-08-30T01:07:41;12.32;;;7.43;;
69989;SDS011;57331;52.054;5.294;2023-08-30T01:10:09;13.95;;;8.13;;
69989;SDS011;57331;52.054;5.294;2023-08-30T01:12:38;11.03;;;5.93;;
69989;SDS011;57331;52.054;5.294;2023-08-30T01:15:10;16.33;;;7.45;;
69989;SDS011;57331;52.054;5.294;2023-08-30T01:17:42;12.50;;;7.07;;
69989;SDS011;57331;52.054;5.294;2023-08-30T01:20:10;12.38;;;6.97;;
69989;SDS011;57331;52.054;5.294;2023-08-30T01:28:35;15.32;;;7.40;;
69989;SDS011;57331;52.054;5.294;2023-08-30T01:31:04;18.02;;;8.52;;
69989;SDS011;57331;52.054;5.294;2023-08-30T01:33:34;14.20;;;7.43;;
69989;SDS011;57331;52.054;5.294;2023-08-30T01:36:02;10.70;;;5.55;;
69989;SDS011;57331;52.054;5.294;2023-08-30T01:38:32;16.70;;;8.47;;
69989;SDS011;57331;52.054;5.294;2023-08-30T01:41:00;15.80;;;8.95;;
69989;SDS011;57331;52.054;5.294;2023-08-30T01:43:29;14.40;;;7.97;;
69989;SDS011;57331;52.054;5.294;2023-08-30T01:45:58;13.55;;;8.00;;
69989;SDS011;57331;52.054;5.294;2023-08-30T01:48:28;13.20;;;7.47;;
69989;SDS011;57331;52.054;5.294;2023-08-30T01:50:55;14.17;;;6.43;;
69989;SDS011;57331;52.054;5.294;2023-08-30T01:53:26;14.85;;;8.25;;
69989;SDS011;57331;52.054;5.294;2023-08-30T01:55:55;14.07;;;8.60;;
69989;SDS011;57331;52.054;5.294;2023-08-30T01:58:22;15.80;;;8.93;;
69989;SDS011;57331;52.054;5.294;2023-08-30T02:00:49;17.17;;;8.95;;
69989;SDS011;57331;52.054;5.294;2023-08-30T02:03:16;14.87;;;8.27;;
69989;SDS011;57331;52.054;5.294;2023-08-30T02:08:26;15.88;;;7.75;;
69989;SDS011;57331;52.054;5.294;2023-08-30T02:11:02;15.73;;;9.13;;
69989;SDS011;57331;52.054;5.294;2023-08-30T02:13:41;16.92;;;7.97;;
69989;SDS011;57331;52.054;5.294;2023-08-30T02:16:09;14.63;;;7.80;;
69989;SDS011;57331;52.054;5.294;2023-08-30T02:18:37;14.70;;;7.85;;
69989;SDS011;57331;52.054;5.294;2023-08-30T02:21:05;18.80;;;9.38;;
69989;SDS011;57331;52.054;5.294;2023-08-30T02:23:32;16.92;;;8.90;;
69989;SDS011;57331;52.054;5.294;2023-08-30T02:25:59;17.13;;;8.45;;
69989;SDS011;57331;52.054;5.294;2023-08-30T02:28:26;13.70;;;7.33;;
69989;SDS011;57331;52.054;5.294;2023-08-30T02:30:53;15.93;;;8.57;;
69989;SDS011;57331;52.054;5.294;2023-08-30T02:33:21;13.95;;;8.10;;
69989;SDS011;57331;52.054;5.294;2023-08-30T02:35:48;18.70;;;9.15;;
69989;SDS011;57331;52.054;5.294;2023-08-30T02:38:15;15.45;;;7.97;;
69989;SDS011;57331;52.054;5.294;2023-08-30T02:40:42;13.87;;;7.87;;
69989;SDS011;57331;52.054;5.294;2023-08-30T02:43:09;17.20;;;8.80;;
69989;SDS011;57331;52.054;5.294;2023-08-30T02:45:36;15.65;;;9.15;;
69989;SDS011;57331;52.054;5.294;2023-08-30T02:48:03;17.02;;;9.02;;
69989;SDS011;57331;52.054;5.294;2023-08-30T02:50:31;17.25;;;8.95;;
69989;SDS011;57331;52.054;5.294;2023-08-30T02:52:58;13.50;;;7.43;;
69989;SDS011;57331;52.054;5.294;2023-08-30T02:55:25;17.10;;;9.93;;
69989;SDS011;57331;52.054;5.294;2023-08-30T02:57:52;22.45;;;9.60;;
69989;SDS011;57331;52.054;5.294;2023-08-30T03:00:19;14.77;;;7.78;;
69989;SDS011;57331;52.054;5.294;2023-08-30T03:02:48;16.02;;;8.57;;
69989;SDS011;57331;52.054;5.294;2023-08-30T03:05:16;16.87;;;9.60;;
69989;SDS011;57331;52.054;5.294;2023-08-30T03:07:43;22.23;;;10.45;;
69989;SDS011;57331;52.054;5.294;2023-08-30T03:10:11;15.18;;;8.63;;
69989;SDS011;57331;52.054;5.294;2023-08-30T03:12:38;18.90;;;10.13;;
69989;SDS011;57331;52.054;5.294;2023-08-30T03:15:05;20.75;;;9.23;;
69989;SDS011;57331;52.054;5.294;2023-08-30T03:17:34;19.97;;;9.07;;
69989;SDS011;57331;52.054;5.294;2023-08-30T03:20:02;16.85;;;9.40;;
69989;SDS011;57331;52.054;5.294;2023-08-30T03:22:33;18.45;;;9.65;;
69989;SDS011;57331;52.054;5.294;2023-08-30T03:24:59;17.80;;;9.68;;
69989;SDS011;57331;52.054;5.294;2023-08-30T03:27:30;19.13;;;9.63;;
69989;SDS011;57331;52.054;5.294;2023-08-30T03:30:02;18.67;;;9.53;;
69989;SDS011;57331;52.054;5.294;2023-08-30T03:32:32;15.57;;;8.45;;
69989;SDS011;57331;52.054;5.294;2023-08-30T03:34:59;17.55;;;9.77;;
69989;SDS011;57331;52.054;5.294;2023-08-30T03:37:26;17.95;;;9.70;;
69989;SDS011;57331;52.054;5.294;2023-08-30T03:39:54;27.88;;;9.55;;
69989;SDS011;57331;52.054;5.294;2023-08-30T03:42:22;21.47;;;9.57;;
69989;SDS011;57331;52.054;5.294;2023-08-30T03:44:49;19.23;;;9.98;;
69989;SDS011;57331;52.054;5.294;2023-08-30T03:47:16;19.15;;;10.30;;
69989;SDS011;57331;52.054;5.294;2023-08-30T03:49:43;21.15;;;9.80;;
69989;SDS011;57331;52.054;5.294;2023-08-30T03:52:12;20.38;;;11.68;;
69989;SDS011;57331;52.054;5.294;2023-08-30T03:54:40;20.10;;;9.90;;
69989;SDS011;57331;52.054;5.294;2023-08-30T03:57:07;17.85;;;9.02;;
69989;SDS011;57331;52.054;5.294;2023-08-30T03:59:34;21.10;;;10.75;;
69989;SDS011;57331;52.054;5.294;2023-08-30T04:02:01;17.90;;;9.80;;
69989;SDS011;57331;52.054;5.294;2023-08-30T04:04:28;19.15;;;10.25;;
69989;SDS011;57331;52.054;5.294;2023-08-30T04:06:55;17.67;;;9.47;;
69989;SDS011;57331;52.054;5.294;2023-08-30T04:09:22;17.70;;;9.57;;
69989;SDS011;57331;52.054;5.294;2023-08-30T04:11:48;17.10;;;8.38;;
69989;SDS011;57331;52.054;5.294;2023-08-30T04:14:15;20.33;;;9.75;;
69989;SDS011;57331;52.054;5.294;2023-08-30T04:16:42;17.83;;;9.52;;
69989;SDS011;57331;52.054;5.294;2023-08-30T04:19:10;18.10;;;10.03;;
69989;SDS011;57331;52.054;5.294;2023-08-30T04:21:37;19.10;;;9.73;;
69989;SDS011;57331;52.054;5.294;2023-08-30T04:24:04;17.08;;;8.73;;
69989;SDS011;57331;52.054;5.294;2023-08-30T04:26:32;18.02;;;8.93;;
69989;SDS011;57331;52.054;5.294;2023-08-30T04:28:59;17.73;;;9.82;;
69989;SDS011;57331;52.054;5.294;2023-08-30T04:31:26;23.90;;;10.40;;
69989;SDS011;57331;52.054;5.294;2023-08-30T04:33:53;19.80;;;10.10;;
69989;SDS011;57331;52.054;5.294;2023-08-30T04:36:21;19.58;;;9.60;;
69989;SDS011;57331;52.054;5.294;2023-08-30T04:38:48;18.50;;;9.45;;
69989;SDS011;57331;52.054;5.294;2023-08-30T04:41:28;21.75;;;10.45;;
69989;SDS011;57331;52.054;5.294;2023-08-30T04:43:55;19.90;;;9.70;;
69989;SDS011;57331;52.054;5.294;2023-08-30T04:46:22;21.17;;;9.75;;
69989;SDS011;57331;52.054;5.294;2023-08-30T04:48:51;18.33;;;9.75;;
69989;SDS011;57331;52.054;5.294;2023-08-30T04:51:18;17.02;;;8.73;;
69989;SDS011;57331;52.054;5.294;2023-08-30T04:53:45;16.80;;;8.75;;
69989;SDS011;57331;52.054;5.294;2023-08-30T04:56:12;21.40;;;10.00;;
69989;SDS011;57331;52.054;5.294;2023-08-30T04:58:40;18.38;;;8.60;;
69989;SDS011;57331;52.054;5.294;2023-08-30T05:01:09;18.77;;;9.15;;
69989;SDS011;57331;52.054;5.294;2023-08-30T05:03:39;16.50;;;9.07;;
69989;SDS011;57331;52.054;5.294;2023-08-30T05:06:09;16.08;;;8.65;;
69989;SDS011;57331;52.054;5.294;2023-08-30T05:08:36;20.30;;;7.50;;
69989;SDS011;57331;52.054;5.294;2023-08-30T05:11:03;18.88;;;8.40;;
69989;SDS011;57331;52.054;5.294;2023-08-30T05:13:34;18.27;;;9.23;;
69989;SDS011;57331;52.054;5.294;2023-08-30T05:16:01;17.83;;;8.52;;
69989;SDS011;57331;52.054;5.294;2023-08-30T05:18:28;18.02;;;9.05;;
69989;SDS011;57331;52.054;5.294;2023-08-30T05:20:55;16.70;;;8.97;;
69989;SDS011;57331;52.054;5.294;2023-08-30T05:23:22;20.75;;;9.40;;
69989;SDS011;57331;52.054;5.294;2023-08-30T05:25:49;18.63;;;9.25;;
69989;SDS011;57331;52.054;5.294;2023-08-30T05:28:17;15.65;;;7.70;;
69989;SDS011;57331;52.054;5.294;2023-08-30T05:30:44;16.63;;;8.18;;
69989;SDS011;57331;52.054;5.294;2023-08-30T05:33:29;20.17;;;9.00;;
69989;SDS011;57331;52.054;5.294;2023-08-30T05:36:21;17.33;;;9.43;;
69989;SDS011;57331;52.054;5.294;2023-08-30T05:38:55;16.52;;;9.02;;
69989;SDS011;57331;52.054;5.294;2023-08-30T05:41:33;17.75;;;8.13;;
69989;SDS011;57331;52.054;5.294;2023-08-30T05:44:00;19.10;;;9.98;;
69989;SDS011;57331;52.054;5.294;2023-08-30T05:46:27;17.57;;;8.90;;
69989;SDS011;57331;52.054;5.294;2023-08-30T05:48:54;16.55;;;7.93;;
69989;SDS011;57331;52.054;5.294;2023-08-30T05:51:22;18.70;;;9.13;;
69989;SDS011;57331;52.054;5.294;2023-08-30T05:53:49;17.13;;;9.00;;
69989;SDS011;57331;52.054;5.294;2023-08-30T05:56:16;17.05;;;9.43;;
69989;SDS011;57331;52.054;5.294;2023-08-30T05:58:44;19.07;;;9.53;;
69989;SDS011;57331;52.054;5.294;2023-08-30T06:01:11;18.08;;;8.57;;
69989;SDS011;57331;52.054;5.294;2023-08-30T06:03:38;23.38;;;10.85;;
69989;SDS011;57331;52.054;5.294;2023-08-30T06:06:05;17.15;;;7.82;;
69989;SDS011;57331;52.054;5.294;2023-08-30T06:08:32;19.45;;;9.65;;
69989;SDS011;57331;52.054;5.294;2023-08-30T06:10:59;24.83;;;9.83;;
69989;SDS011;57331;52.054;5.294;2023-08-30T06:13:26;17.25;;;9.25;;
69989;SDS011;57331;52.054;5.294;2023-08-30T06:15:53;21.48;;;9.02;;
69989;SDS011;57331;52.054;5.294;2023-08-30T06:18:20;18.17;;;8.70;;
69989;SDS011;57331;52.054;5.294;2023-08-30T06:20:47;17.05;;;8.65;;
69989;SDS011;57331;52.054;5.294;2023-08-30T06:23:18;19.67;;;8.00;;
69989;SDS011;57331;52.054;5.294;2023-08-30T06:25:56;20.20;;;11.05;;
69989;SDS011;57331;52.054;5.294;2023-08-30T06:28:23;21.23;;;10.40;;
69989;SDS011;57331;52.054;5.294;2023-08-30T06:30:51;17.35;;;10.23;;
69989;SDS011;57331;52.054;5.294;2023-08-30T06:33:18;20.85;;;10.38;;
69989;SDS011;57331;52.054;5.294;2023-08-30T06:35:47;21.27;;;11.17;;
69989;SDS011;57331;52.054;5.294;2023-08-30T06:38:15;25.17;;;11.13;;
69989;SDS011;57331;52.054;5.294;2023-08-30T06:40:43;21.30;;;10.77;;
69989;SDS011;57331;52.054;5.294;2023-08-30T06:43:11;26.88;;;9.77;;
69989;SDS011;57331;52.054;5.294;2023-08-30T06:45:39;25.35;;;11.50;;
69989;SDS011;57331;52.054;5.294;2023-08-30T06:48:07;21.20;;;9.53;;
69989;SDS011;57331;52.054;5.294;2023-08-30T06:50:35;32.30;;;10.65;;
69989;SDS011;57331;52.054;5.294;2023-08-30T06:53:02;32.38;;;11.75;;
69989;SDS011;57331;52.054;5.294;2023-08-30T06:55:30;34.78;;;12.20;;
69989;SDS011;57331;52.054;5.294;2023-08-30T06:57:58;32.80;;;11.77;;
69989;SDS011;57331;52.054;5.294;2023-08-30T07:00:25;37.73;;;11.20;;
69989;SDS011;57331;52.054;5.294;2023-08-30T07:02:52;23.98;;;10.60;;
69989;SDS011;57331;52.054;5.294;2023-08-30T07:05:19;35.22;;;12.00;;
69989;SDS011;57331;52.054;5.294;2023-08-30T07:07:48;51.45;;;12.18;;
69989;SDS011;57331;52.054;5.294;2023-08-30T07:10:15;48.60;;;11.93;;
69989;SDS011;57331;52.054;5.294;2023-08-30T07:12:42;21.10;;;11.10;;
69989;SDS011;57331;52.054;5.294;2023-08-30T07:15:09;29.27;;;11.05;;
69989;SDS011;57331;52.054;5.294;2023-08-30T07:17:36;29.63;;;11.70;;
69989;SDS011;57331;52.054;5.294;2023-08-30T07:20:19;25.63;;;10.70;;
69989;SDS011;57331;52.054;5.294;2023-08-30T07:22:46;28.50;;;11.18;;
69989;SDS011;57331;52.054;5.294;2023-08-30T07:25:13;28.43;;;10.73;;
69989;SDS011;57331;52.054;5.294;2023-08-30T07:27:40;26.13;;;11.05;;
69989;SDS011;57331;52.054;5.294;2023-08-30T07:30:07;37.80;;;11.77;;
69989;SDS011;57331;52.054;5.294;2023-08-30T07:32:34;35.45;;;11.55;;
69989;SDS011;57331;52.054;5.294;2023-08-30T07:35:03;30.83;;;11.18;;
69989;SDS011;57331;52.054;5.294;2023-08-30T07:37:30;46.53;;;12.70;;
69989;SDS011;57331;52.054;5.294;2023-08-30T07:39:57;31.20;;;10.95;;
69989;SDS011;57331;52.054;5.294;2023-08-30T07:42:24;42.88;;;11.77;;
69989;SDS011;57331;52.054;5.294;2023-08-30T07:44:51;22.48;;;9.50;;
69989;SDS011;57331;52.054;5.294;2023-08-30T07:47:18;24.98;;;10.48;;
69989;SDS011;57331;52.054;5.294;2023-08-30T07:49:45;23.30;;;9.73;;
69989;SDS011;57331;52.054;5.294;2023-08-30T07:52:12;26.08;;;9.88;;
69989;SDS011;57331;52.054;5.294;2023-08-30T07:54:40;17.77;;;9.05;;
69989;SDS011;57331;52.054;5.294;2023-08-30T07:57:07;28.13;;;9.63;;
69989;SDS011;57331;52.054;5.294;2023-08-30T07:59:35;18.52;;;8.98;;
69989;SDS011;57331;52.054;5.294;2023-08-30T08:02:03;19.03;;;9.87;;
69989;SDS011;57331;52.054;5.294;2023-08-30T08:04:34;17.85;;;8.63;;
69989;SDS011;57331;52.054;5.294;2023-08-30T08:07:02;19.98;;;9.10;;
69989;SDS011;57331;52.054;5.294;2023-08-30T08:09:30;21.33;;;9.00;;
69989;SDS011;57331;52.054;5.294;2023-08-30T08:11:58;41.40;;;9.43;;
69989;SDS011;57331;52.054;5.294;2023-08-30T08:14:25;32.77;;;9.73;;
69989;SDS011;57331;52.054;5.294;2023-08-30T08:16:52;24.83;;;8.77;;
69989;SDS011;57331;52.054;5.294;2023-08-30T08:19:19;26.95;;;7.85;;
69989;SDS011;57331;52.054;5.294;2023-08-30T08:21:51;14.18;;;7.40;;
69989;SDS011;57331;52.054;5.294;2023-08-30T08:24:20;16.67;;;7.43;;
69989;SDS011;57331;52.054;5.294;2023-08-30T08:26:47;19.37;;;6.77;;
69989;SDS011;57331;52.054;5.294;2023-08-30T08:29:14;16.20;;;6.57;;
69989;SDS011;57331;52.054;5.294;2023-08-30T08:31:41;16.95;;;6.72;;
69989;SDS011;57331;52.054;5.294;2023-08-30T08:36:40;14.82;;;6.70;;
69989;SDS011;57331;52.054;5.294;2023-08-30T08:39:08;15.63;;;7.67;;
69989;SDS011;57331;52.054;5.294;2023-08-30T08:41:40;16.13;;;6.40;;
69989;SDS011;57331;52.054;5.294;2023-08-30T08:44:08;19.13;;;7.78;;
69989;SDS011;57331;52.054;5.294;2023-08-30T08:46:36;12.43;;;6.10;;
69989;SDS011;57331;52.054;5.294;2023-08-30T08:49:08;16.05;;;6.82;;
69989;SDS011;57331;52.054;5.294;2023-08-30T08:51:37;17.07;;;7.40;;
69989;SDS011;57331;52.054;5.294;2023-08-30T08:54:05;16.08;;;7.18;;
69989;SDS011;57331;52.054;5.294;2023-08-30T08:56:32;30.85;;;7.90;;
69989;SDS011;57331;52.054;5.294;2023-08-30T08:59:00;17.95;;;6.85;;
69989;SDS011;57331;52.054;5.294;2023-08-30T09:01:28;13.93;;;6.10;;
69989;SDS011;57331;52.054;5.294;2023-08-30T09:04:08;13.97;;;7.23;;
69989;SDS011;57331;52.054;5.294;2023-08-30T09:06:37;17.65;;;7.80;;
69989;SDS011;57331;52.054;5.294;2023-08-30T09:09:09;13.50;;;7.20;;
69989;SDS011;57331;52.054;5.294;2023-08-30T09:11:37;13.93;;;6.90;;
69989;SDS011;57331;52.054;5.294;2023-08-30T09:14:08;17.75;;;8.27;;
69989;SDS011;57331;52.054;5.294;2023-08-30T09:16:35;13.30;;;6.77;;
69989;SDS011;57331;52.054;5.294;2023-08-30T09:19:03;16.15;;;7.40;;
69989;SDS011;57331;52.054;5.294;2023-08-30T09:21:34;17.25;;;7.82;;
69989;SDS011;57331;52.054;5.294;2023-08-30T09:24:04;14.48;;;7.72;;
69989;SDS011;57331;52.054;5.294;2023-08-30T09:26:34;15.45;;;7.50;;
69989;SDS011;57331;52.054;5.294;2023-08-30T09:29:04;17.63;;;8.53;;
69989;SDS011;57331;52.054;5.294;2023-08-30T09:31:41;15.50;;;8.48;;
69989;SDS011;57331;52.054;5.294;2023-08-30T09:34:08;20.98;;;9.27;;
69989;SDS011;57331;52.054;5.294;2023-08-30T09:36:38;15.40;;;8.30;;
69989;SDS011;57331;52.054;5.294;2023-08-30T09:39:07;19.90;;;8.77;;
69989;SDS011;57331;52.054;5.294;2023-08-30T09:41:42;15.57;;;9.00;;
69989;SDS011;57331;52.054;5.294;2023-08-30T09:44:14;16.27;;;7.93;;
69989;SDS011;57331;52.054;5.294;2023-08-30T09:46:46;19.20;;;8.52;;
69989;SDS011;57331;52.054;5.294;2023-08-30T09:49:27;18.35;;;9.75;;
69989;SDS011;57331;52.054;5.294;2023-08-30T09:51:54;26.08;;;11.35;;
69989;SDS011;57331;52.054;5.294;2023-08-30T09:54:23;20.50;;;10.57;;
69989;SDS011;57331;52.054;5.294;2023-08-30T09:56:54;22.02;;;10.18;;
69989;SDS011;57331;52.054;5.294;2023-08-30T09:59:24;20.25;;;10.70;;
69989;SDS011;57331;52.054;5.294;2023-08-30T10:01:54;16.13;;;9.00;;
69989;SDS011;57331;52.054;5.294;2023-08-30T10:04:22;20.33;;;10.38;;
69989;SDS011;57331;52.054;5.294;2023-08-30T10:06:51;18.93;;;12.13;;
69989;SDS011;57331;52.054;5.294;2023-08-30T10:09:20;21.15;;;12.93;;
69989;SDS011;57331;52.054;5.294;2023-08-30T10:11:47;18.98;;;11.55;;
69989;SDS011;57331;52.054;5.294;2023-08-30T10:14:15;16.88;;;10.63;;
69989;SDS011;57331;52.054;5.294;2023-08-30T10:16:44;16.60;;;10.30;;
69989;SDS011;57331;52.054;5.294;2023-08-30T10:19:15;13.07;;;9.40;;
69989;SDS011;57331;52.054;5.294;2023-08-30T10:24:32;13.95;;;8.88;;
69989;SDS011;57331;52.054;5.294;2023-08-30T10:27:22;15.07;;;8.93;;
69989;SDS011;57331;52.054;5.294;2023-08-30T10:29:51;13.82;;;8.07;;
69989;SDS011;57331;52.054;5.294;2023-08-30T10:32:19;13.80;;;7.80;;
69989;SDS011;57331;52.054;5.294;2023-08-30T10:34:49;11.90;;;7.20;;
69989;SDS011;57331;52.054;5.294;2023-08-30T10:37:23;11.60;;;7.03;;
69989;SDS011;57331;52.054;5.294;2023-08-30T10:39:53;13.35;;;7.45;;
69989;SDS011;57331;52.054;5.294;2023-08-30T10:42:25;12.25;;;7.45;;
69989;SDS011;57331;52.054;5.294;2023-08-30T10:44:56;10.47;;;5.87;;
69989;SDS011;57331;52.054;5.294;2023-08-30T10:47:39;12.07;;;5.75;;
69989;SDS011;57331;52.054;5.294;2023-08-30T10:50:08;10.27;;;4.78;;
69989;SDS011;57331;52.054;5.294;2023-08-30T10:52:39;8.30;;;3.67;;
69989;SDS011;57331;52.054;5.294;2023-08-30T10:55:10;7.70;;;3.90;;
69989;SDS011;57331;52.054;5.294;2023-08-30T10:57:42;7.77;;;3.13;;
69989;SDS011;57331;52.054;5.294;2023-08-30T11:00:12;8.45;;;3.40;;
69989;SDS011;57331;52.054;5.294;2023-08-30T11:02:46;10.80;;;4.03;;
69989;SDS011;57331;52.054;5.294;2023-08-30T11:05:21;7.45;;;3.50;;
69989;SDS011;57331;52.054;5.294;2023-08-30T11:07:50;11.15;;;4.15;;
69989;SDS011;57331;52.054;5.294;2023-08-30T11:10:18;7.90;;;3.07;;
69989;SDS011;57331;52.054;5.294;2023-08-30T11:12:46;9.57;;;3.25;;
69989;SDS011;57331;52.054;5.294;2023-08-30T11:15:15;7.38;;;2.92;;
69989;SDS011;57331;52.054;5.294;2023-08-30T11:17:43;15.00;;;3.45;;
69989;SDS011;57331;52.054;5.294;2023-08-30T11:20:11;9.82;;;3.40;;
69989;SDS011;57331;52.054;5.294;2023-08-30T11:22:47;8.83;;;3.30;;
69989;SDS011;57331;52.054;5.294;2023-08-30T11:25:29;7.85;;;3.40;;
69989;SDS011;57331;52.054;5.294;2023-08-30T11:28:03;10.30;;;3.35;;
69989;SDS011;57331;52.054;5.294;2023-08-30T11:30:30;12.23;;;3.60;;
69989;SDS011;57331;52.054;5.294;2023-08-30T11:32:57;13.82;;;3.90;;
69989;SDS011;57331;52.054;5.294;2023-08-30T11:35:24;12.47;;;3.47;;
69989;SDS011;57331;52.054;5.294;2023-08-30T11:37:52;31.05;;;4.10;;
69989;SDS011;57331;52.054;5.294;2023-08-30T11:40:20;10.32;;;3.60;;
69989;SDS011;57331;52.054;5.294;2023-08-30T11:42:47;11.25;;;3.28;;
69989;SDS011;57331;52.054;5.294;2023-08-30T11:45:14;7.85;;;2.78;;
69989;SDS011;57331;52.054;5.294;2023-08-30T11:47:41;10.17;;;2.70;;
69989;SDS011;57331;52.054;5.294;2023-08-30T11:50:10;8.32;;;3.20;;
69989;SDS011;57331;52.054;5.294;2023-08-30T11:52:38;15.38;;;3.08;;
69989;SDS011;57331;52.054;5.294;2023-08-30T11:55:06;11.43;;;2.63;;
69989;SDS011;57331;52.054;5.294;2023-08-30T11:57:33;6.28;;;3.00;;
69989;SDS011;57331;52.054;5.294;2023-08-30T12:00:11;10.40;;;3.17;;
69989;SDS011;57331;52.054;5.294;2023-08-30T12:02:39;7.80;;;2.80;;
69989;SDS011;57331;52.054;5.294;2023-08-30T12:05:10;8.98;;;2.92;;
69989;SDS011;57331;52.054;5.294;2023-08-30T12:07:38;12.73;;;2.78;;
69989;SDS011;57331;52.054;5.294;2023-08-30T12:10:07;13.20;;;2.90;;
69989;SDS011;57331;52.054;5.294;2023-08-30T12:12:35;10.97;;;2.90;;
69989;SDS011;57331;52.054;5.294;2023-08-30T12:15:09;9.25;;;2.72;;
69989;SDS011;57331;52.054;5.294;2023-08-30T12:17:36;9.60;;;3.10;;
69989;SDS011;57331;52.054;5.294;2023-08-30T12:20:03;13.30;;;2.97;;
69989;SDS011;57331;52.054;5.294;2023-08-30T12:22:39;9.43;;;2.60;;
69989;SDS011;57331;52.054;5.294;2023-08-30T12:25:16;11.93;;;3.00;;
69989;SDS011;57331;52.054;5.294;2023-08-30T12:27:47;6.28;;;2.60;;
69989;SDS011;57331;52.054;5.294;2023-08-30T12:30:14;8.23;;;2.60;;
69989;SDS011;57331;52.054;5.294;2023-08-30T12:32:43;9.90;;;2.80;;
69989;SDS011;57331;52.054;5.294;2023-08-30T12:35:11;10.20;;;2.75;;
69989;SDS011;57331;52.054;5.294;2023-08-30T12:37:38;9.10;;;2.60;;
69989;SDS011;57331;52.054;5.294;2023-08-30T12:40:05;9.35;;;2.55;;
69989;SDS011;57331;52.054;5.294;2023-08-30T12:42:33;11.30;;;3.08;;
69989;SDS011;57331;52.054;5.294;2023-08-30T12:45:00;9.93;;;3.17;;
69989;SDS011;57331;52.054;5.294;2023-08-30T12:47:27;10.05;;;2.33;;
69989;SDS011;57331;52.054;5.294;2023-08-30T12:49:55;10.83;;;2.50;;
69989;SDS011;57331;52.054;5.294;2023-08-30T12:52:22;8.05;;;2.70;;
69989;SDS011;57331;52.054;5.294;2023-08-30T12:54:49;7.28;;;2.35;;
69989;SDS011;57331;52.054;5.294;2023-08-30T12:57:18;13.07;;;2.55;;
69989;SDS011;57331;52.054;5.294;2023-08-30T12:59:45;8.68;;;2.50;;
69989;SDS011;57331;52.054;5.294;2023-08-30T13:02:13;10.50;;;2.80;;
69989;SDS011;57331;52.054;5.294;2023-08-30T13:04:40;8.18;;;2.67;;
69989;SDS011;57331;52.054;5.294;2023-08-30T13:07:07;10.95;;;3.13;;
69989;SDS011;57331;52.054;5.294;2023-08-30T13:09:34;16.88;;;3.50;;
69989;SDS011;57331;52.054;5.294;2023-08-30T13:12:01;12.93;;;3.08;;
69989;SDS011;57331;52.054;5.294;2023-08-30T13:14:28;10.17;;;3.00;;
69989;SDS011;57331;52.054;5.294;2023-08-30T13:16:55;7.93;;;2.55;;
69989;SDS011;57331;52.054;5.294;2023-08-30T13:19:22;10.65;;;2.72;;
69989;SDS011;57331;52.054;5.294;2023-08-30T13:21:49;11.27;;;2.80;;
69989;SDS011;57331;52.054;5.294;2023-08-30T13:24:16;9.88;;;2.88;;
69989;SDS011;57331;52.054;5.294;2023-08-30T13:26:43;8.03;;;2.57;;
69989;SDS011;57331;52.054;5.294;2023-08-30T13:29:11;9.82;;;2.88;;
69989;SDS011;57331;52.054;5.294;2023-08-30T13:31:38;11.13;;;3.00;;
69989;SDS011;57331;52.054;5.294;2023-08-30T13:34:05;8.23;;;2.50;;
69989;SDS011;57331;52.054;5.294;2023-08-30T13:36:32;8.38;;;2.65;;
69989;SDS011;57331;52.054;5.294;2023-08-30T13:38:59;11.40;;;2.80;;
69989;SDS011;57331;52.054;5.294;2023-08-30T13:41:26;8.25;;;2.70;;
69989;SDS011;57331;52.054;5.294;2023-08-30T13:43:53;8.50;;;3.03;;
69989;SDS011;57331;52.054;5.294;2023-08-30T13:46:24;10.10;;;2.80;;
69989;SDS011;57331;52.054;5.294;2023-08-30T13:48:51;9.88;;;2.90;;
69989;SDS011;57331;52.054;5.294;2023-08-30T13:51:21;8.73;;;2.80;;
69989;SDS011;57331;52.054;5.294;2023-08-30T13:53:48;10.68;;;3.20;;
69989;SDS011;57331;52.054;5.294;2023-08-30T13:56:19;11.35;;;2.75;;
69989;SDS011;57331;52.054;5.294;2023-08-30T13:58:46;6.93;;;2.58;;
69989;SDS011;57331;52.054;5.294;2023-08-30T14:01:14;6.25;;;2.17;;
69989;SDS011;57331;52.054;5.294;2023-08-30T14:03:41;8.40;;;2.07;;
69989;SDS011;57331;52.054;5.294;2023-08-30T14:06:08;7.97;;;2.35;;
69989;SDS011;57331;52.054;5.294;2023-08-30T14:08:36;7.43;;;2.70;;
69989;SDS011;57331;52.054;5.294;2023-08-30T14:11:03;7.38;;;2.40;;
69989;SDS011;57331;52.054;5.294;2023-08-30T14:13:30;8.85;;;2.60;;
69989;SDS011;57331;52.054;5.294;2023-08-30T14:16:00;7.60;;;2.90;;
69989;SDS011;57331;52.054;5.294;2023-08-30T14:18:30;9.85;;;4.00;;
69989;SDS011;57331;52.054;5.294;2023-08-30T14:20:58;16.92;;;5.63;;
69989;SDS011;57331;52.054;5.294;2023-08-30T14:23:26;8.73;;;3.53;;
69989;SDS011;57331;52.054;5.294;2023-08-30T14:26:00;9.15;;;2.90;;
69989;SDS011;57331;52.054;5.294;2023-08-30T14:28:36;11.63;;;5.17;;
69989;SDS011;57331;52.054;5.294;2023-08-30T14:31:07;9.10;;;2.90;;
69989;SDS011;57331;52.054;5.294;2023-08-30T14:33:36;8.93;;;3.42;;
69989;SDS011;57331;52.054;5.294;2023-08-30T14:36:10;13.73;;;4.30;;
69989;SDS011;57331;52.054;5.294;2023-08-30T14:38:37;20.35;;;7.20;;
69989;SDS011;57331;52.054;5.294;2023-08-30T14:41:05;10.27;;;3.73;;
69989;SDS011;57331;52.054;5.294;2023-08-30T14:43:33;11.05;;;4.25;;
69989;SDS011;57331;52.054;5.294;2023-08-30T14:46:00;13.65;;;4.60;;
69989;SDS011;57331;52.054;5.294;2023-08-30T14:48:36;8.48;;;3.60;;
69989;SDS011;57331;52.054;5.294;2023-08-30T14:51:04;12.25;;;3.60;;
69989;SDS011;57331;52.054;5.294;2023-08-30T14:53:32;11.03;;;3.80;;
69989;SDS011;57331;52.054;5.294;2023-08-30T14:56:01;14.15;;;4.38;;